QFA55 PAVD-PAJN
Flight info
| Callsign | QFA55 |
|---|---|
| Flight time | 1h 7m |
| Altitude | 35000 |
| Route | JMAAL4 NAKED JOH J501 YAK J541 SSR |
| Aircraft | B738/M-SDE2E3FGHIRWXY/LB1 |
Departure
| Time | 2026-05-07 10:33 |
|---|---|
| Airport | Valdez Pioneer Field (PAVD) |
Arrival
| Time | 2026-05-07 11:40 |
|---|---|
| Airport | Juneau International Airport (PAJN) |
| Time | Latitude | Longitude | Altitude | Speed | Heading |
|---|---|---|---|---|---|
| 2026-05-07 10:27 | 61.13230 | -146.23919 | 84 ft | 0 kts | 244° |
| 2026-05-07 10:29 | 61.13230 | -146.23920 | 84 ft | 0 kts | 244° |
| 2026-05-07 10:29 | 61.13228 | -146.23930 | 84 ft | 3 kts | 254° |
| 2026-05-07 10:29 | 61.13233 | -146.24020 | 84 ft | 9 kts | 279° |
| 2026-05-07 10:30 | 61.13279 | -146.24361 | 84 ft | 15 kts | 336° |
| 2026-05-07 10:30 | 61.13388 | -146.24396 | 84 ft | 17 kts | 7° |
| 2026-05-07 10:30 | 61.13445 | -146.24204 | 84 ft | 18 kts | 82° |
| 2026-05-07 10:30 | 61.13463 | -146.23942 | 84 ft | 19 kts | 82° |
| 2026-05-07 10:31 | 61.13483 | -146.23664 | 84 ft | 20 kts | 81° |
| 2026-05-07 10:31 | 61.13505 | -146.23361 | 84 ft | 23 kts | 82° |
| 2026-05-07 10:31 | 61.13529 | -146.23022 | 84 ft | 23 kts | 81° |
| 2026-05-07 10:31 | 61.13532 | -146.22740 | 84 ft | 15 kts | 92° |
| 2026-05-07 10:32 | 61.13557 | -146.22709 | 84 ft | 7 kts | 263° |
| 2026-05-07 10:32 | 61.13541 | -146.22905 | 84 ft | 33 kts | 262° |
| 2026-05-07 10:32 | 61.13469 | -146.23875 | 84 ft | 102 kts | 261° |
| 2026-05-07 10:32 | 61.13334 | -146.25729 | 101 ft | 154 kts | 261° |
| 2026-05-07 10:33 | 61.13125 | -146.28016 | 566 ft | 165 kts | 254° |
| 2026-05-07 10:33 | 61.12810 | -146.30232 | 1457 ft | 159 kts | 255° |
| 2026-05-07 10:33 | 61.12579 | -146.32565 | 2021 ft | 174 kts | 262° |
| 2026-05-07 10:33 | 61.12395 | -146.35127 | 2527 ft | 187 kts | 263° |
| 2026-05-07 10:34 | 61.12108 | -146.37892 | 2992 ft | 205 kts | 258° |
| 2026-05-07 10:34 | 61.11754 | -146.40893 | 3434 ft | 225 kts | 256° |
| 2026-05-07 10:34 | 61.11331 | -146.44133 | 3960 ft | 241 kts | 254° |
| 2026-05-07 10:34 | 61.10870 | -146.47530 | 4702 ft | 248 kts | 253° |
| 2026-05-07 10:35 | 61.10411 | -146.51004 | 5501 ft | 253 kts | 252° |
| 2026-05-07 10:35 | 61.09954 | -146.54554 | 6304 ft | 257 kts | 252° |
| 2026-05-07 10:35 | 61.09496 | -146.58158 | 7111 ft | 261 kts | 253° |
| 2026-05-07 10:35 | 61.09030 | -146.61805 | 7905 ft | 264 kts | 252° |
| 2026-05-07 10:36 | 61.08549 | -146.65546 | 8696 ft | 267 kts | 252° |
| 2026-05-07 10:36 | 61.08071 | -146.69224 | 9460 ft | 270 kts | 252° |
| 2026-05-07 10:36 | 61.07574 | -146.73043 | 10188 ft | 277 kts | 252° |
| 2026-05-07 10:36 | 61.07058 | -146.77005 | 10544 ft | 294 kts | 253° |
| 2026-05-07 10:37 | 61.06308 | -146.81045 | 10807 ft | 311 kts | 237° |
| 2026-05-07 10:37 | 61.04836 | -146.84343 | 11330 ft | 317 kts | 214° |
| 2026-05-07 10:37 | 61.02830 | -146.86191 | 12051 ft | 320 kts | 192° |
| 2026-05-07 10:37 | 61.00603 | -146.86201 | 12814 ft | 324 kts | 171° |
| 2026-05-07 10:38 | 60.98375 | -146.85219 | 13518 ft | 331 kts | 168° |
| 2026-05-07 10:38 | 60.96129 | -146.84024 | 14242 ft | 335 kts | 167° |
| 2026-05-07 10:38 | 60.93862 | -146.82768 | 14961 ft | 340 kts | 168° |
| 2026-05-07 10:38 | 60.91556 | -146.81546 | 15679 ft | 344 kts | 169° |
| 2026-05-07 10:39 | 60.89214 | -146.80372 | 16404 ft | 348 kts | 170° |
| 2026-05-07 10:39 | 60.86840 | -146.79207 | 17119 ft | 353 kts | 170° |
| 2026-05-07 10:39 | 60.84440 | -146.78019 | 17851 ft | 357 kts | 170° |
| 2026-05-07 10:39 | 60.82014 | -146.76800 | 18561 ft | 361 kts | 170° |
| 2026-05-07 10:40 | 60.79559 | -146.75559 | 19254 ft | 365 kts | 171° |
| 2026-05-07 10:40 | 60.77075 | -146.74307 | 19940 ft | 369 kts | 171° |
| 2026-05-07 10:40 | 60.74571 | -146.73054 | 20607 ft | 373 kts | 171° |
| 2026-05-07 10:40 | 60.72036 | -146.71791 | 21244 ft | 377 kts | 171° |
| 2026-05-07 10:41 | 60.69478 | -146.70519 | 21879 ft | 380 kts | 171° |
| 2026-05-07 10:41 | 60.67768 | -146.69668 | 22286 ft | 383 kts | 171° |
| 2026-05-07 10:41 | 60.65138 | -146.68360 | 22891 ft | 386 kts | 172° |
| 2026-05-07 10:41 | 60.61654 | -146.66630 | 23650 ft | 391 kts | 172° |
| 2026-05-07 10:42 | 60.59862 | -146.65743 | 24026 ft | 393 kts | 172° |
| 2026-05-07 10:42 | 60.57194 | -146.64424 | 24580 ft | 396 kts | 172° |
| 2026-05-07 10:42 | 60.54508 | -146.63080 | 25127 ft | 400 kts | 169° |
| 2026-05-07 10:42 | 60.51925 | -146.60918 | 25839 ft | 406 kts | 157° |
| 2026-05-07 10:43 | 60.49611 | -146.57494 | 26321 ft | 419 kts | 141° |
| 2026-05-07 10:43 | 60.47796 | -146.52798 | 26868 ft | 431 kts | 126° |
| 2026-05-07 10:43 | 60.46647 | -146.47082 | 27213 ft | 446 kts | 109° |
| 2026-05-07 10:43 | 60.45904 | -146.40899 | 27492 ft | 455 kts | 107° |
| 2026-05-07 10:44 | 60.45236 | -146.34591 | 27819 ft | 461 kts | 106° |
| 2026-05-07 10:44 | 60.44579 | -146.28196 | 28153 ft | 465 kts | 106° |
| 2026-05-07 10:44 | 60.43884 | -146.21777 | 28514 ft | 468 kts | 107° |
| 2026-05-07 10:44 | 60.43144 | -146.15340 | 28869 ft | 471 kts | 108° |
| 2026-05-07 10:45 | 60.42383 | -146.08887 | 29216 ft | 473 kts | 108° |
| 2026-05-07 10:45 | 60.41624 | -146.02379 | 29533 ft | 477 kts | 108° |
| 2026-05-07 10:45 | 60.40103 | -145.89052 | 29678 ft | 493 kts | 108° |
| 2026-05-07 10:46 | 60.39326 | -145.82269 | 29900 ft | 496 kts | 108° |
| 2026-05-07 10:46 | 60.38538 | -145.75484 | 30168 ft | 497 kts | 108° |
| 2026-05-07 10:46 | 60.37740 | -145.68695 | 30478 ft | 496 kts | 108° |
| 2026-05-07 10:46 | 60.36938 | -145.61910 | 30785 ft | 496 kts | 108° |
| 2026-05-07 10:47 | 60.36136 | -145.55133 | 31083 ft | 496 kts | 108° |
| 2026-05-07 10:47 | 60.35334 | -145.48362 | 31375 ft | 495 kts | 108° |
| 2026-05-07 10:47 | 60.34529 | -145.41611 | 31662 ft | 495 kts | 108° |
| 2026-05-07 10:47 | 60.33718 | -145.34856 | 31947 ft | 494 kts | 108° |
| 2026-05-07 10:48 | 60.32906 | -145.28125 | 32226 ft | 494 kts | 108° |
| 2026-05-07 10:48 | 60.32093 | -145.21399 | 32501 ft | 493 kts | 107° |
| 2026-05-07 10:48 | 60.31269 | -145.14600 | 32769 ft | 492 kts | 107° |
| 2026-05-07 10:48 | 60.30450 | -145.07896 | 33029 ft | 492 kts | 107° |
| 2026-05-07 10:49 | 60.29629 | -145.01208 | 33287 ft | 491 kts | 108° |
| 2026-05-07 10:49 | 60.28805 | -144.94535 | 33535 ft | 490 kts | 107° |
| 2026-05-07 10:49 | 60.27980 | -144.87878 | 33771 ft | 490 kts | 107° |
| 2026-05-07 10:49 | 60.27150 | -144.81214 | 34001 ft | 489 kts | 107° |
| 2026-05-07 10:50 | 60.26318 | -144.74578 | 34228 ft | 489 kts | 107° |
| 2026-05-07 10:50 | 60.25485 | -144.67939 | 34450 ft | 489 kts | 107° |
| 2026-05-07 10:50 | 60.24653 | -144.61317 | 34661 ft | 488 kts | 107° |
| 2026-05-07 10:50 | 60.23815 | -144.54691 | 34874 ft | 488 kts | 107° |
| 2026-05-07 10:51 | 60.22973 | -144.48078 | 35056 ft | 488 kts | 108° |
| 2026-05-07 10:51 | 60.22128 | -144.41476 | 35209 ft | 489 kts | 108° |
| 2026-05-07 10:51 | 60.20413 | -144.28168 | 35222 ft | 494 kts | 108° |
| 2026-05-07 10:52 | 60.18682 | -144.14810 | 35222 ft | 493 kts | 108° |
| 2026-05-07 10:52 | 60.16941 | -144.01516 | 35222 ft | 490 kts | 108° |
| 2026-05-07 10:53 | 60.15202 | -143.88356 | 35220 ft | 486 kts | 108° |
| 2026-05-07 10:53 | 60.13459 | -143.75279 | 35221 ft | 484 kts | 108° |
| 2026-05-07 10:54 | 60.11708 | -143.62244 | 35218 ft | 484 kts | 108° |
| 2026-05-07 10:54 | 60.09940 | -143.49201 | 35221 ft | 485 kts | 108° |
| 2026-05-07 10:55 | 60.08146 | -143.36063 | 35219 ft | 486 kts | 109° |
| 2026-05-07 10:55 | 60.06349 | -143.23018 | 35221 ft | 486 kts | 109° |
| 2026-05-07 10:56 | 60.04539 | -143.09983 | 35221 ft | 486 kts | 109° |
| 2026-05-07 10:56 | 60.02715 | -142.96958 | 35222 ft | 486 kts | 109° |
| 2026-05-07 10:57 | 60.00878 | -142.83947 | 35223 ft | 487 kts | 109° |
| 2026-05-07 10:57 | 59.99026 | -142.70929 | 35223 ft | 488 kts | 110° |
| 2026-05-07 10:58 | 59.97153 | -142.57881 | 35225 ft | 489 kts | 110° |
| 2026-05-07 10:58 | 59.95268 | -142.44839 | 35225 ft | 489 kts | 110° |
| 2026-05-07 10:59 | 59.93368 | -142.31802 | 35228 ft | 489 kts | 110° |
| 2026-05-07 10:59 | 59.91455 | -142.18784 | 35231 ft | 489 kts | 110° |
| 2026-05-07 11:00 | 59.89532 | -142.05790 | 35234 ft | 489 kts | 110° |
| 2026-05-07 11:00 | 59.87597 | -141.92825 | 35236 ft | 489 kts | 110° |
| 2026-05-07 11:01 | 59.85646 | -141.79852 | 35213 ft | 489 kts | 110° |
| 2026-05-07 11:01 | 59.83685 | -141.66909 | 35210 ft | 489 kts | 110° |
| 2026-05-07 11:02 | 59.81695 | -141.53883 | 35214 ft | 489 kts | 111° |
| 2026-05-07 11:02 | 59.79705 | -141.40945 | 35218 ft | 490 kts | 111° |
| 2026-05-07 11:03 | 59.77696 | -141.27991 | 35223 ft | 491 kts | 111° |
| 2026-05-07 11:03 | 59.75669 | -141.15010 | 35225 ft | 493 kts | 111° |
| 2026-05-07 11:04 | 59.73626 | -141.02028 | 35232 ft | 494 kts | 112° |
| 2026-05-07 11:04 | 59.71565 | -140.89031 | 35241 ft | 495 kts | 111° |
| 2026-05-07 11:05 | 59.69486 | -140.76023 | 35247 ft | 496 kts | 112° |
| 2026-05-07 11:05 | 59.67391 | -140.63000 | 35253 ft | 496 kts | 112° |
| 2026-05-07 11:06 | 59.65284 | -140.50003 | 35258 ft | 496 kts | 112° |
| 2026-05-07 11:06 | 59.63163 | -140.37020 | 35263 ft | 496 kts | 112° |
| 2026-05-07 11:07 | 59.61027 | -140.24040 | 35267 ft | 497 kts | 112° |
| 2026-05-07 11:07 | 59.58879 | -140.11076 | 35271 ft | 497 kts | 112° |
| 2026-05-07 11:08 | 59.56718 | -139.98126 | 35274 ft | 497 kts | 112° |
| 2026-05-07 11:08 | 59.54541 | -139.85182 | 35277 ft | 497 kts | 112° |
| 2026-05-07 11:09 | 59.52334 | -139.72166 | 35278 ft | 498 kts | 113° |
| 2026-05-07 11:09 | 59.49666 | -139.59711 | 35288 ft | 490 kts | 123° |
| 2026-05-07 11:10 | 59.46429 | -139.47914 | 35281 ft | 490 kts | 124° |
| 2026-05-07 11:10 | 59.43135 | -139.36196 | 35279 ft | 490 kts | 124° |
| 2026-05-07 11:11 | 59.39859 | -139.24477 | 35277 ft | 490 kts | 124° |
| 2026-05-07 11:11 | 59.36574 | -139.12774 | 35276 ft | 489 kts | 124° |
| 2026-05-07 11:12 | 59.33271 | -139.01119 | 35276 ft | 489 kts | 124° |
| 2026-05-07 11:12 | 59.29961 | -138.89477 | 35278 ft | 489 kts | 124° |
| 2026-05-07 11:13 | 59.26643 | -138.77857 | 35280 ft | 489 kts | 124° |
| 2026-05-07 11:13 | 59.23314 | -138.66271 | 35281 ft | 489 kts | 125° |
| 2026-05-07 11:14 | 59.19975 | -138.54704 | 35281 ft | 489 kts | 125° |
| 2026-05-07 11:14 | 59.16627 | -138.43162 | 35279 ft | 489 kts | 125° |
| 2026-05-07 11:15 | 59.13811 | -138.33499 | 35282 ft | 489 kts | 125° |
| 2026-05-07 11:15 | 59.10438 | -138.21979 | 35284 ft | 490 kts | 125° |
| 2026-05-07 11:16 | 59.07052 | -138.10470 | 34638 ft | 488 kts | 126° |
| 2026-05-07 11:16 | 59.05376 | -138.04786 | 34077 ft | 482 kts | 126° |
| 2026-05-07 11:16 | 59.03715 | -137.99165 | 33539 ft | 477 kts | 126° |
| 2026-05-07 11:17 | 59.02067 | -137.93615 | 33009 ft | 472 kts | 126° |
| 2026-05-07 11:17 | 59.00429 | -137.88119 | 32485 ft | 468 kts | 126° |
| 2026-05-07 11:17 | 58.98794 | -137.82656 | 31968 ft | 474 kts | 127° |
| 2026-05-07 11:17 | 58.97108 | -137.77051 | 31426 ft | 485 kts | 126° |
| 2026-05-07 11:18 | 58.95430 | -137.71436 | 30889 ft | 479 kts | 126° |
| 2026-05-07 11:18 | 58.93776 | -137.65883 | 30358 ft | 473 kts | 126° |
| 2026-05-07 11:18 | 58.92134 | -137.60402 | 29833 ft | 468 kts | 127° |
| 2026-05-07 11:18 | 58.90502 | -137.55000 | 29315 ft | 463 kts | 127° |
| 2026-05-07 11:19 | 58.88880 | -137.49657 | 28800 ft | 458 kts | 127° |
| 2026-05-07 11:19 | 58.87271 | -137.44364 | 28291 ft | 454 kts | 127° |
| 2026-05-07 11:19 | 58.85682 | -137.39134 | 27787 ft | 450 kts | 126° |
| 2026-05-07 11:19 | 58.84106 | -137.33950 | 27285 ft | 445 kts | 126° |
| 2026-05-07 11:20 | 58.82544 | -137.28827 | 26793 ft | 441 kts | 126° |
| 2026-05-07 11:20 | 58.80993 | -137.23756 | 26303 ft | 437 kts | 126° |
| 2026-05-07 11:20 | 58.79451 | -137.18731 | 25818 ft | 433 kts | 126° |
| 2026-05-07 11:20 | 58.77926 | -137.13769 | 25338 ft | 429 kts | 126° |
| 2026-05-07 11:21 | 58.76413 | -137.08852 | 24861 ft | 425 kts | 126° |
| 2026-05-07 11:21 | 58.74912 | -137.03985 | 24389 ft | 420 kts | 126° |
| 2026-05-07 11:21 | 58.73404 | -136.99107 | 23916 ft | 416 kts | 126° |
| 2026-05-07 11:21 | 58.71928 | -136.94343 | 23454 ft | 412 kts | 126° |
| 2026-05-07 11:22 | 58.70466 | -136.89635 | 22997 ft | 408 kts | 126° |
| 2026-05-07 11:22 | 58.69013 | -136.84963 | 22544 ft | 407 kts | 126° |
| 2026-05-07 11:22 | 58.67534 | -136.80233 | 22084 ft | 414 kts | 126° |
| 2026-05-07 11:22 | 58.66060 | -136.75512 | 21624 ft | 410 kts | 125° |
| 2026-05-07 11:23 | 58.64603 | -136.70841 | 21169 ft | 405 kts | 125° |
| 2026-05-07 11:23 | 58.63161 | -136.66232 | 20721 ft | 400 kts | 125° |
| 2026-05-07 11:23 | 58.61733 | -136.61685 | 20278 ft | 395 kts | 125° |
| 2026-05-07 11:23 | 58.60319 | -136.57200 | 19840 ft | 391 kts | 125° |
| 2026-05-07 11:24 | 58.58921 | -136.52769 | 19408 ft | 386 kts | 125° |
| 2026-05-07 11:24 | 58.57531 | -136.48374 | 18979 ft | 387 kts | 125° |
| 2026-05-07 11:24 | 58.56108 | -136.43894 | 18540 ft | 395 kts | 125° |
| 2026-05-07 11:24 | 58.54689 | -136.39421 | 18101 ft | 390 kts | 125° |
| 2026-05-07 11:25 | 58.53283 | -136.34990 | 17472 ft | 390 kts | 125° |
| 2026-05-07 11:25 | 58.52014 | -136.30995 | 17000 ft | 386 kts | 125° |
| 2026-05-07 11:25 | 58.50627 | -136.26637 | 16542 ft | 381 kts | 125° |
| 2026-05-07 11:25 | 58.49260 | -136.22352 | 16112 ft | 374 kts | 125° |
| 2026-05-07 11:26 | 58.47914 | -136.18147 | 15696 ft | 368 kts | 125° |
| 2026-05-07 11:26 | 58.46589 | -136.14018 | 15288 ft | 361 kts | 126° |
| 2026-05-07 11:26 | 58.45282 | -136.09954 | 14891 ft | 361 kts | 126° |
| 2026-05-07 11:26 | 58.43958 | -136.05852 | 14484 ft | 363 kts | 126° |
| 2026-05-07 11:27 | 58.42635 | -136.01749 | 14080 ft | 362 kts | 126° |
| 2026-05-07 11:27 | 58.41320 | -135.97671 | 13676 ft | 360 kts | 126° |
| 2026-05-07 11:27 | 58.40023 | -135.93653 | 13280 ft | 351 kts | 126° |
| 2026-05-07 11:27 | 58.38756 | -135.89738 | 12893 ft | 343 kts | 126° |
| 2026-05-07 11:28 | 58.37489 | -135.85846 | 12512 ft | 352 kts | 126° |
| 2026-05-07 11:28 | 58.36195 | -135.81883 | 12117 ft | 351 kts | 126° |
| 2026-05-07 11:28 | 58.34914 | -135.77934 | 11723 ft | 342 kts | 126° |
| 2026-05-07 11:28 | 58.33681 | -135.74135 | 11344 ft | 332 kts | 126° |
| 2026-05-07 11:29 | 58.32470 | -135.70422 | 10976 ft | 331 kts | 125° |
| 2026-05-07 11:29 | 58.31245 | -135.66692 | 10604 ft | 333 kts | 125° |
| 2026-05-07 11:29 | 58.30031 | -135.62996 | 10409 ft | 322 kts | 125° |
| 2026-05-07 11:29 | 58.28883 | -135.59484 | 10277 ft | 305 kts | 125° |
| 2026-05-07 11:30 | 58.27793 | -135.56156 | 10149 ft | 289 kts | 125° |
| 2026-05-07 11:30 | 58.26740 | -135.52961 | 10026 ft | 282 kts | 125° |
| 2026-05-07 11:30 | 58.25694 | -135.49801 | 9654 ft | 286 kts | 125° |
| 2026-05-07 11:30 | 58.24634 | -135.46602 | 9143 ft | 286 kts | 124° |
| 2026-05-07 11:31 | 58.23587 | -135.43431 | 8872 ft | 277 kts | 124° |
| 2026-05-07 11:31 | 58.22577 | -135.40368 | 8722 ft | 273 kts | 124° |
| 2026-05-07 11:31 | 58.21562 | -135.37310 | 8365 ft | 270 kts | 124° |
| 2026-05-07 11:31 | 58.20581 | -135.34355 | 8084 ft | 261 kts | 124° |
| 2026-05-07 11:32 | 58.18605 | -135.28400 | 7725 ft | 267 kts | 122° |
| 2026-05-07 11:32 | 58.18145 | -135.25046 | 7583 ft | 268 kts | 88° |
| 2026-05-07 11:32 | 58.18506 | -135.21565 | 7309 ft | 272 kts | 71° |
| 2026-05-07 11:33 | 58.19294 | -135.18347 | 7016 ft | 267 kts | 62° |
| 2026-05-07 11:33 | 58.20092 | -135.15646 | 7028 ft | 256 kts | 61° |
| 2026-05-07 11:33 | 58.20968 | -135.12498 | 6604 ft | 277 kts | 64° |
| 2026-05-07 11:33 | 58.21776 | -135.09216 | 6240 ft | 272 kts | 65° |
| 2026-05-07 11:34 | 58.22878 | -135.06378 | 5940 ft | 265 kts | 41° |
| 2026-05-07 11:34 | 58.24439 | -135.04670 | 5651 ft | 257 kts | 15° |
| 2026-05-07 11:34 | 58.26159 | -135.03953 | 5367 ft | 250 kts | 9° |
| 2026-05-07 11:34 | 58.27846 | -135.03395 | 5092 ft | 241 kts | 8° |
| 2026-05-07 11:35 | 58.29469 | -135.02896 | 4835 ft | 231 kts | 8° |
| 2026-05-07 11:35 | 58.31053 | -135.02400 | 4598 ft | 225 kts | 8° |
| 2026-05-07 11:35 | 58.32587 | -135.01902 | 4357 ft | 223 kts | 9° |
| 2026-05-07 11:35 | 58.34067 | -135.01129 | 4126 ft | 219 kts | 27° |
| 2026-05-07 11:36 | 58.35200 | -134.99226 | 3915 ft | 220 kts | 57° |
| 2026-05-07 11:36 | 58.35684 | -134.96515 | 3678 ft | 216 kts | 88° |
| 2026-05-07 11:36 | 58.35731 | -134.93661 | 3442 ft | 214 kts | 91° |
| 2026-05-07 11:36 | 58.35731 | -134.90881 | 3206 ft | 205 kts | 91° |
| 2026-05-07 11:37 | 58.35727 | -134.88221 | 2983 ft | 197 kts | 91° |
| 2026-05-07 11:37 | 58.35729 | -134.85656 | 2776 ft | 190 kts | 91° |
| 2026-05-07 11:37 | 58.35737 | -134.83242 | 2541 ft | 174 kts | 90° |
| 2026-05-07 11:37 | 58.35744 | -134.80954 | 2293 ft | 172 kts | 90° |
| 2026-05-07 11:38 | 58.35750 | -134.78684 | 2053 ft | 171 kts | 90° |
| 2026-05-07 11:38 | 58.35755 | -134.76432 | 1817 ft | 170 kts | 90° |
| 2026-05-07 11:38 | 58.35761 | -134.74188 | 1574 ft | 169 kts | 90° |
| 2026-05-07 11:38 | 58.35769 | -134.71964 | 1366 ft | 165 kts | 89° |
| 2026-05-07 11:39 | 58.35808 | -134.69865 | 1259 ft | 153 kts | 88° |
| 2026-05-07 11:39 | 58.35839 | -134.67870 | 1060 ft | 150 kts | 88° |
| 2026-05-07 11:39 | 58.35871 | -134.65916 | 830 ft | 145 kts | 87° |
| 2026-05-07 11:39 | 58.35909 | -134.63993 | 589 ft | 146 kts | 88° |
| 2026-05-07 11:40 | 58.35940 | -134.62054 | 343 ft | 147 kts | 91° |
| 2026-05-07 11:40 | 58.35834 | -134.60135 | 115 ft | 143 kts | 102° |
| 2026-05-07 11:40 | 58.35612 | -134.58467 | 30 ft | 103 kts | 105° |
| 2026-05-07 11:40 | 58.35488 | -134.57562 | 30 ft | 38 kts | 105° |
| 2026-05-07 11:41 | 58.35470 | -134.57324 | 30 ft | 12 kts | 52° |
| 2026-05-07 11:41 | 58.35544 | -134.57295 | 30 ft | 10 kts | 334° |
| 2026-05-07 11:41 | 58.35580 | -134.57402 | 30 ft | 11 kts | 288° |
| 2026-05-07 11:41 | 58.35600 | -134.57531 | 30 ft | 9 kts | 283° |
| 2026-05-07 11:42 | 58.35615 | -134.57651 | 30 ft | 11 kts | 284° |
| 2026-05-07 11:42 | 58.35638 | -134.57816 | 30 ft | 15 kts | 285° |
| 2026-05-07 11:42 | 58.35670 | -134.58039 | 30 ft | 20 kts | 285° |
| 2026-05-07 11:42 | 58.35709 | -134.58309 | 30 ft | 20 kts | 285° |
| 2026-05-07 11:43 | 58.35737 | -134.58509 | 30 ft | 15 kts | 288° |
| 2026-05-07 11:43 | 58.35803 | -134.58610 | 30 ft | 10 kts | 358° |
| 2026-05-07 11:43 | 58.35866 | -134.58603 | 30 ft | 7 kts | 20° |
| 2026-05-07 11:43 | 58.35885 | -134.58540 | 30 ft | 6 kts | 91° |
| 2026-05-07 11:44 | 58.35879 | -134.58476 | 30 ft | 2 kts | 104° |
| 2026-05-07 11:44 | 58.35878 | -134.58473 | 30 ft | 0 kts | 104° |
| 2026-05-07 11:51 | 58.35878 | -134.58474 | 30 ft | 0 kts | 103° |